Time;durP1;ratioP1;P1;durP2;ratioP2;P2;SDS_P1;SDS_P2;PMS_P1;PMS_P2;Temp;Humidity;BMP_temperature;BMP_pressure;BME280_temperature;BME280_humidity;BME280_pressure;Samples;Min_cycle;Max_cycle;Signal;HPM_P1;HPM_P2
2021/11/30 00:02:23;;;;;;;;;;;;;;;;;;4359815;33;20035;-70
2021/11/30 00:04:48;;;;;;;8.57;1.85;;;;;;;;;;4370904;32;19989;-71
2021/11/30 00:07:13;;;;;;;;;;;;;;;;;;4360205;33;20178;-69
2021/11/30 00:12:04;;;;;;;;;;;;;;;;;;4359845;32;20050;-69
2021/11/30 00:14:38;;;;;;;8.10;2.53;;;;;;;;;;4362485;32;19983;-69
2021/11/30 00:17:04;;;;;;;13.23;3.08;;;;;;;;;;4348980;33;20450;-69
2021/11/30 00:19:29;;;;;;;;;;;;;;;;;;4363230;32;20059;-69
2021/11/30 00:21:55;;;;;;;5.10;1.77;;;;;;;;;;4362557;32;19953;-70
2021/11/30 00:24:21;;;;;;;;;;;;;;;;;;4362695;32;20040;-69
2021/11/30 00:26:47;;;;;;;5.60;2.60;;;;;;;;;;4362340;32;19942;-69
2021/11/30 00:29:12;;;;;;;;;;;;;;;;;;4364021;32;20089;-70
2021/11/30 00:31:37;;;;;;;6.58;1.92;;;;;;;;;;4347402;33;20289;-70
2021/11/30 00:34:03;;;;;;;;;;;;;;;;;;4347907;33;20027;-70
2021/11/30 00:36:28;;;;;;;9.75;3.30;;;;;;;;;;4348185;33;19943;-69
2021/11/30 00:38:53;;;;;;;;;;;;;;;;;;4347803;32;20043;-70
2021/11/30 00:41:19;;;;;;;5.15;2.42;;;;;;;;;;4347278;33;19978;-69
2021/11/30 00:43:44;;;;;;;;;;;;;;;;;;4347672;33;20436;-70
2021/11/30 00:46:39;;;;;;;10.82;2.65;;;;;;;;;;4362042;32;19970;-69
2021/11/30 00:49:06;;;;;;;10.00;2.72;;;;;;;;;;4349394;33;20023;-69
2021/11/30 00:51:33;;;;;;;8.98;2.62;;;;;;;;;;4362453;32;20089;-69
2021/11/30 00:53:58;;;;;;;10.25;2.58;;;;;;;;;;4348990;33;20035;-69
2021/11/30 00:56:24;;;;;;;;;;;;;;;;;;4362664;32;20122;-69
2021/11/30 00:58:49;;;;;;;8.90;2.83;;;;;;;;;;4362118;32;19970;-69
2021/11/30 01:01:14;;;;;;;;;;;;;;;;;;4362510;32;20349;-69
2021/11/30 01:03:40;;;;;;;7.87;2.53;;;;;;;;;;4362202;32;20237;-69
2021/11/30 01:06:05;;;;;;;;;;;;;;;;;;4362877;32;20414;-69
2021/11/30 01:08:31;;;;;;;13.95;3.40;;;;;;;;;;4362342;32;19934;-69
2021/11/30 01:10:56;;;;;;;;;;;;;;;;;;4362506;32;20019;-68
2021/11/30 01:13:21;;;;;;;11.93;2.97;;;;;;;;;;4362384;32;19934;-69
2021/11/30 01:15:46;;;;;;;;;;;;;;;;;;4362264;33;20191;-69
2021/11/30 01:18:11;;;;;;;11.98;3.37;;;;;;;;;;4362447;32;19947;-69
2021/11/30 01:20:36;;;;;;;;;;;;;;;;;;4362605;32;20148;-69
2021/11/30 01:23:09;;;;;;;13.80;4.70;;;;;;;;;;4361801;32;19934;-69
2021/11/30 01:25:38;;;;;;;13.38;6.78;;;;;;;;;;4362089;32;20058;-69
2021/11/30 01:28:06;;;;;;;18.62;8.57;;;;;;;;;;4361954;32;20109;-69
2021/11/30 01:30:32;;;;;;;20.62;9.38;;;;;;;;;;4361311;33;20031;-69
2021/11/30 01:32:57;;;;;;;;;;;;;;;;;;4361642;32;20042;-69
2021/11/30 01:35:23;;;;;;;25.23;12.40;;;;;;;;;;4361829;32;19945;-69
2021/11/30 01:37:48;;;;;;;;;;;;;;;;;;4361307;32;20048;-69
2021/11/30 01:40:45;;;;;;;31.17;16.90;;;;;;;;;;4361917;32;19946;-69
2021/11/30 01:43:43;;;;;;;25.42;16.37;;;;;;;;;;4351735;33;20039;-69
2021/11/30 01:46:25;;;;;;;35.83;18.25;;;;;;;;;;4363098;32;20031;-69
2021/11/30 01:49:11;;;;;;;24.30;14.27;;;;;;;;;;4361988;32;20023;-69
2021/11/30 01:51:36;;;;;;;30.75;21.27;;;;;;;;;;4362188;32;20022;-69
2021/11/30 01:54:01;;;;;;;;;;;;;;;;;;4362014;32;20375;-69
2021/11/30 01:56:27;;;;;;;31.92;20.50;;;;;;;;;;4361424;32;19946;-69
2021/11/30 01:58:59;;;;;;;;;;;;;;;;;;4361677;32;20035;-69
2021/11/30 02:01:24;;;;;;;29.12;19.52;;;;;;;;;;4362170;32;19948;-69
2021/11/30 02:03:49;;;;;;;;;;;;;;;;;;4361550;32;20063;-69
2021/11/30 02:06:15;;;;;;;23.80;16.45;;;;;;;;;;4361445;32;19934;-69
2021/11/30 02:08:40;;;;;;;;;;;;;;;;;;4348940;33;20397;-69
2021/11/30 02:11:05;;;;;;;28.83;19.17;;;;;;;;;;4360802;32;20310;-69
2021/11/30 02:13:31;;;;;;;;;;;;;;;;;;4362313;32;20497;-69
2021/11/30 02:15:59;;;;;;;18.33;13.48;;;;;;;;;;4347917;33;19941;-69
2021/11/30 02:18:25;;;;;;;20.83;14.52;;;;;;;;;;4360698;32;20084;-69
2021/11/30 02:20:55;;;;;;;;;;;;;;;;;;4361416;32;20031;-69
2021/11/30 02:23:49;;;;;;;22.52;16.90;;;;;;;;;;4362492;32;19946;-69
2021/11/30 02:26:17;;;;;;;20.00;15.20;;;;;;;;;;4347827;33;20073;-69
2021/11/30 02:28:47;;;;;;;23.02;14.95;;;;;;;;;;4347481;33;20027;-69
2021/11/30 02:31:13;;;;;;;23.05;17.10;;;;;;;;;;4360542;32;20043;-69
2021/11/30 02:33:39;;;;;;;21.60;16.33;;;;;;;;;;4362074;32;20064;-70
2021/11/30 02:36:13;;;;;;;;;;;;;;;;;;4360932;32;20047;-69
2021/11/30 02:38:51;;;;;;;21.25;14.93;;;;;;;;;;4361092;32;19946;-69
2021/11/30 02:41:16;;;;;;;22.75;17.42;;;;;;;;;;4360982;32;20092;-69
2021/11/30 02:43:41;;;;;;;;;;;;;;;;;;4361220;32;20402;-69
2021/11/30 02:46:07;;;;;;;26.08;17.50;;;;;;;;;;4361056;32;19935;-70
2021/11/30 02:48:32;;;;;;;;;;;;;;;;;;4360660;32;20338;-69
2021/11/30 02:51:00;;;;;;;29.10;19.67;;;;;;;;;;4360400;32;19943;-70
2021/11/30 02:53:25;;;;;;;24.92;18.85;;;;;;;;;;4360667;32;20035;-70
2021/11/30 02:55:50;;;;;;;;;;;;;;;;;;4361471;32;20410;-69
2021/11/30 02:58:15;;;;;;;16.12;9.38;;;;;;;;;;4360812;32;19953;-69
2021/11/30 03:00:41;;;;;;;;;;;;;;;;;;4348356;33;20161;-69
2021/11/30 03:09:13;;;;;;;19.05;9.25;;;;;;;;;;4361539;32;20353;-69
2021/11/30 03:11:51;;;;;;;;;;;;;;;;;;;;;
2021/11/30 03:14:19;;;;;;;13.77;8.07;;;;;;;;;;4361394;32;20230;-69
2021/11/30 03:16:45;;;;;;;15.02;8.02;;;;;;;;;;4360204;32;20089;-70
2021/11/30 03:22:03;;;;;;;10.93;6.15;;;;;;;;;;4360492;32;19953;-69
2021/11/30 03:24:29;;;;;;;14.55;6.57;;;;;;;;;;4361086;32;20032;-70
2021/11/30 03:26:54;;;;;;;;;;;;;;;;;;4360976;33;20316;-70
2021/11/30 03:35:36;;;;;;;16.27;6.37;;;;;;;;;;4316002;33;20093;-70
2021/11/30 03:38:05;;;;;;;13.38;6.90;;;;;;;;;;4356279;33;20055;-69
2021/11/30 03:40:30;;;;;;;13.75;6.68;;;;;;;;;;4360406;33;20070;-69
2021/11/30 03:42:55;;;;;;;;;;;;;;;;;;4359422;33;20376;-70
2021/11/30 03:45:31;;;;;;;15.13;8.55;;;;;;;;;;4360293;33;20313;-70
2021/11/30 03:47:56;;;;;;;8.95;5.97;;;;;;;;;;4363706;32;20381;-70
2021/11/30 03:50:22;;;;;;;;;;;;;;;;;;4364045;32;20081;-70
2021/11/30 03:52:47;;;;;;;11.80;6.70;;;;;;;;;;4354500;32;20287;-70
2021/11/30 03:55:12;;;;;;;;;;;;;;;;;;4364221;32;20377;-69
2021/11/30 03:57:40;;;;;;;9.80;5.25;;;;;;;;;;4363156;32;20370;-69
2021/11/30 04:00:09;;;;;;;10.82;6.32;;;;;;;;;;4363343;32;20032;-69
2021/11/30 04:02:35;;;;;;;12.98;5.93;;;;;;;;;;4363064;32;20027;-70
2021/11/30 04:05:00;;;;;;;;;;;;;;;;;;4363075;32;20054;-69
2021/11/30 04:07:34;;;;;;;13.82;9.27;;;;;;;;;;4363140;32;19939;-69
2021/11/30 04:10:00;;;;;;;12.68;7.97;;;;;;;;;;4363431;32;20070;-69
2021/11/30 04:12:25;;;;;;;;;;;;;;;;;;4349751;33;20114;-69
2021/11/30 04:14:56;;;;;;;13.06;8.00;;;;;;;;;;4362706;32;19969;-70
2021/11/30 04:17:21;;;;;;;20.00;10.00;;;;;;;;;;4362488;32;20457;-70
2021/11/30 04:19:46;;;;;;;;;;;;;;;;;;4363067;32;20073;-69
2021/11/30 04:22:14;;;;;;;19.77;11.35;;;;;;;;;;4362654;32;19934;-69
2021/11/30 04:24:41;;;;;;;24.73;14.10;;;;;;;;;;4362897;32;20067;-70
2021/11/30 04:27:16;;;;;;;;;;;;;;;;;;;;;
2021/11/30 04:29:43;;;;;;;23.98;13.40;;;;;;;;;;4362963;33;20069;-70
2021/11/30 04:32:08;;;;;;;22.27;12.48;;;;;;;;;;4362422;32;20032;-69
2021/11/30 04:34:34;;;;;;;;;;;;;;;;;;4363534;32;20463;-70
2021/11/30 04:37:18;;;;;;;20.90;12.35;;;;;;;;;;4362291;32;19984;-69
2021/11/30 04:39:47;;;;;;;26.73;15.65;;;;;;;;;;4362210;32;20138;-69
2021/11/30 04:42:22;;;;;;;;;;;;;;;;;;;;;
2021/11/30 04:47:35;;;;;;;23.95;14.07;;;;;;;;;;4362717;32;20471;-70
2021/11/30 04:50:04;;;;;;;26.83;15.45;;;;;;;;;;4362288;33;20035;-70
2021/11/30 04:52:33;;;;;;;26.77;15.35;;;;;;;;;;4362367;32;20051;-71
2021/11/30 04:54:59;;;;;;;24.52;14.10;;;;;;;;;;4362697;32;20061;-70
2021/11/30 04:57:24;;;;;;;;;;;;;;;;;;4363310;32;20066;-70
2021/11/30 04:59:51;;;;;;;29.02;14.95;;;;;;;;;;4361122;33;19973;-70
2021/11/30 05:02:19;;;;;;;24.52;14.52;;;;;;;;;;4362115;32;20026;-70
2021/11/30 05:04:55;;;;;;;24.42;13.70;;;;;;;;;;4362435;32;20035;-70
2021/11/30 05:07:20;;;;;;;19.90;13.70;;;;;;;;;;4347998;33;20071;-71
2021/11/30 05:09:45;;;;;;;;;;;;;;;;;;4362917;32;20454;-70
2021/11/30 05:12:13;;;;;;;25.35;13.98;;;;;;;;;;4361789;32;20002;-71
2021/11/30 05:14:39;;;;;;;23.83;13.45;;;;;;;;;;4362184;32;20073;-70
2021/11/30 05:17:10;;;;;;;;;;;;;;;;;;4362858;32;20027;-69
2021/11/30 05:19:35;;;;;;;27.80;14.63;;;;;;;;;;4361628;32;19988;-69
2021/11/30 05:22:00;;;;;;;;;;;;;;;;;;4362425;32;20023;-71
2021/11/30 05:24:26;;;;;;;19.08;11.35;;;;;;;;;;4362060;32;19946;-70
2021/11/30 05:26:54;;;;;;;;;;;;;;;;;;4362164;33;20119;-70
2021/11/30 05:29:19;;;;;;;22.92;12.95;;;;;;;;;;4348173;33;19935;-70
2021/11/30 05:31:52;;;;;;;;;;;;;;;;;;4360840;32;20421;-71
2021/11/30 05:34:17;;;;;;;23.10;11.93;;;;;;;;;;4361521;32;19962;-70
2021/11/30 05:36:42;;;;;;;;;;;;;;;;;;4348783;33;20425;-70
2021/11/30 05:39:08;;;;;;;35.22;15.07;;;;;;;;;;4361302;32;20378;-70
2021/11/30 05:41:35;;;;;;;;;;;;;;;;;;4361618;32;20065;-70
2021/11/30 05:44:00;;;;;;;27.73;13.20;;;;;;;;;;4362076;32;20382;-70
2021/11/30 05:46:26;;;;;;;;;;;;;;;;;;4348493;33;20027;-70
2021/11/30 05:48:51;;;;;;;26.83;15.18;;;;;;;;;;4361090;32;19950;-70
2021/11/30 05:51:17;;;;;;;;;;;;;;;;;;4361021;32;20062;-70
2021/11/30 05:53:53;;;;;;;25.83;12.82;;;;;;;;;;4362352;32;20246;-70
2021/11/30 05:56:19;;;;;;;21.92;12.10;;;;;;;;;;4362339;32;20084;-70
2021/11/30 05:58:45;;;;;;;;;;;;;;;;;;4361833;32;20043;-70
2021/11/30 06:01:20;;;;;;;27.73;12.88;;;;;;;;;;4361042;32;19963;-71
2021/11/30 06:03:57;;;;;;;30.02;13.15;;;;;;;;;;4361635;32;20031;-69
2021/11/30 06:06:23;;;;;;;37.20;13.35;;;;;;;;;;4361258;32;20434;-69
2021/11/30 06:09:09;;;;;;;;;;;;;;;;;;4361875;32;20030;-70
2021/11/30 06:11:34;;;;;;;28.02;12.75;;;;;;;;;;4361393;32;19938;-71
2021/11/30 06:14:00;;;;;;;;;;;;;;;;;;4361119;32;20444;-70
2021/11/30 06:17:02;;;;;;;27.90;12.88;;;;;;;;;;4360763;32;19942;-70
2021/11/30 06:22:45;;;;;;;23.05;11.68;;;;;;;;;;4343013;33;20388;-70
2021/11/30 06:25:10;;;;;;;38.53;10.68;;;;;;;;;;4361486;32;20384;-70
2021/11/30 06:27:35;;;;;;;;;;;;;;;;;;4360976;32;20061;-70
2021/11/30 06:30:03;;;;;;;31.15;10.80;;;;;;;;;;4361074;32;19947;-70
2021/11/30 06:32:28;;;;;;;24.00;10.00;;;;;;;;;;4360412;32;20031;-71
2021/11/30 06:34:54;;;;;;;;;;;;;;;;;;4360997;32;20060;-71
2021/11/30 06:37:19;;;;;;;28.52;9.52;;;;;;;;;;4360330;32;20003;-71
2021/11/30 06:39:44;;;;;;;;;;;;;;;;;;4361038;32;20042;-71
2021/11/30 06:42:16;;;;;;;18.20;7.93;;;;;;;;;;4360420;32;19974;-71
2021/11/30 06:44:54;;;;;;;24.63;9.32;;;;;;;;;;4348174;32;20174;-70
2021/11/30 06:47:20;;;;;;;29.55;9.43;;;;;;;;;;4359291;33;20058;-71
2021/11/30 06:49:45;;;;;;;;;;;;;;;;;;4361737;32;20035;-71
2021/11/30 06:52:14;;;;;;;21.45;7.00;;;;;;;;;;4360036;32;19950;-70
2021/11/30 06:57:36;;;;;;;22.73;7.47;;;;;;;;;;4361939;32;20368;-71
2021/11/30 07:00:30;;;;;;;16.75;6.78;;;;;;;;;;4361085;32;20081;-69
2021/11/30 07:02:56;;;;;;;18.15;6.30;;;;;;;;;;4361456;32;20042;-70
2021/11/30 07:05:25;;;;;;;;;;;;;;;;;;4360518;32;20089;-70
2021/11/30 07:10:47;;;;;;;18.23;6.78;;;;;;;;;;4346686;33;20058;-70
2021/11/30 07:13:21;;;;;;;23.30;5.40;;;;;;;;;;4349115;33;20420;-70
2021/11/30 07:15:49;;;;;;;14.93;6.22;;;;;;;;;;4346443;33;20404;-72
2021/11/30 07:18:15;;;;;;;15.38;7.22;;;;;;;;;;4360306;32;20405;-70
2021/11/30 07:20:43;;;;;;;;;;;;;;;;;;4359997;32;20086;-70
2021/11/30 07:23:18;;;;;;;17.33;6.05;;;;;;;;;;4359799;33;19950;-70
2021/11/30 07:25:44;;;;;;;21.08;6.55;;;;;;;;;;4360321;33;20384;-71
2021/11/30 07:28:09;;;;;;;;;;;;;;;;;;4361182;33;20126;-71
2021/11/30 07:30:35;;;;;;;15.52;6.28;;;;;;;;;;4360598;33;19969;-70
2021/11/30 07:33:01;;;;;;;;;;;;;;;;;;4359793;33;20169;-70
2021/11/30 07:35:26;;;;;;;15.27;5.20;;;;;;;;;;4359818;33;19986;-70
2021/11/30 07:38:08;;;;;;;;;;;;;;;;;;;;;
2021/11/30 07:40:39;;;;;;;18.00;4.47;;;;;;;;;;4360334;33;19961;-70
2021/11/30 07:43:07;;;;;;;20.42;5.37;;;;;;;;;;4361599;33;20059;-70
2021/11/30 07:45:33;;;;;;;12.48;5.22;;;;;;;;;;4359935;33;20031;-70
2021/11/30 07:47:59;;;;;;;;;;;;;;;;;;4359965;33;20080;-70
2021/11/30 07:50:24;;;;;;;25.08;5.47;;;;;;;;;;4360681;33;19942;-70
2021/11/30 07:52:58;;;;;;;;;;;;;;;;;;4346589;33;20122;-70
2021/11/30 07:55:24;;;;;;;21.50;6.25;;;;;;;;;;4360648;33;19953;-70
2021/11/30 07:57:49;;;;;;;;;;;;;;;;;;4358919;33;20063;-71
2021/11/30 08:00:16;;;;;;;19.92;7.35;;;;;;;;;;4359230;33;19934;-71
2021/11/30 08:02:41;;;;;;;18.90;5.85;;;;;;;;;;4360011;33;20171;-71
2021/11/30 08:05:07;;;;;;;;;;;;;;;;;;4361514;33;20461;-71
2021/11/30 08:07:32;;;;;;;17.80;6.95;;;;;;;;;;4361270;33;19992;-70
2021/11/30 08:09:58;;;;;;;;;;;;;;;;;;4360028;33;20124;-71
2021/11/30 08:12:23;;;;;;;22.87;6.62;;;;;;;;;;4359469;33;20325;-70
2021/11/30 08:14:48;;;;;;;;;;;;;;;;;;4360116;33;20053;-71
2021/11/30 08:17:14;;;;;;;14.87;7.00;;;;;;;;;;4360431;33;19954;-70
2021/11/30 08:19:39;;;;;;;;;;;;;;;;;;4360188;33;20031;-71
2021/11/30 08:22:04;;;;;;;22.56;6.92;;;;;;;;;;4359971;33;19968;-71
2021/11/30 08:24:29;;;;;;;;;;;;;;;;;;4360956;33;20078;-70
2021/11/30 08:26:55;;;;;;;20.48;6.35;;;;;;;;;;4361326;33;20272;-70
2021/11/30 08:29:20;;;;;;;;;;;;;;;;;;4359948;33;20198;-70
2021/11/30 08:31:45;;;;;;;18.37;7.85;;;;;;;;;;4359691;33;19969;-71
2021/11/30 08:34:10;;;;;;;;;;;;;;;;;;4361804;32;20073;-70
2021/11/30 08:36:36;;;;;;;18.30;6.12;;;;;;;;;;4362799;32;19942;-70
2021/11/30 08:39:01;;;;;;;;;;;;;;;;;;4362326;32;20136;-70
2021/11/30 08:41:26;;;;;;;19.05;6.53;;;;;;;;;;4363938;32;20210;-70
2021/11/30 08:43:51;;;;;;;;;;;;;;;;;;4362445;33;20043;-70
2021/11/30 08:46:17;;;;;;;20.90;5.92;;;;;;;;;;4362766;33;20265;-70
2021/11/30 08:48:42;;;;;;;;;;;;;;;;;;4363207;32;20047;-69
2021/11/30 08:51:07;;;;;;;19.58;6.80;;;;;;;;;;4363595;32;19943;-70
2021/11/30 08:53:35;;;;;;;;;;;;;;;;;;4362255;32;20140;-70
2021/11/30 08:56:04;;;;;;;18.67;4.87;;;;;;;;;;4362318;32;19984;-70
2021/11/30 08:58:40;;;;;;;16.27;5.28;;;;;;;;;;4362737;32;20058;-70
2021/11/30 09:01:06;;;;;;;21.50;5.60;;;;;;;;;;4361677;32;20031;-70
2021/11/30 09:03:31;;;;;;;;;;;;;;;;;;4362800;32;20288;-70
2021/11/30 09:05:59;;;;;;;19.02;5.68;;;;;;;;;;4362141;32;19942;-70
2021/11/30 09:08:25;;;;;;;12.50;4.53;;;;;;;;;;4348457;33;20427;-71
2021/11/30 09:10:50;;;;;;;;;;;;;;;;;;4361999;32;20067;-71
2021/11/30 09:13:28;;;;;;;16.37;4.50;;;;;;;;;;4361898;32;19934;-70
2021/11/30 09:16:12;;;;;;;12.80;5.05;;;;;;;;;;4348195;33;20031;-70
2021/11/30 09:18:51;;;;;;;14.27;5.07;;;;;;;;;;4362252;32;20035;-70
2021/11/30 09:21:17;;;;;;;14.70;5.03;;;;;;;;;;4361676;32;20093;-70
2021/11/30 09:23:44;;;;;;;;;;;;;;;;;;4361108;32;20054;-70
2021/11/30 09:26:38;;;;;;;15.25;5.18;;;;;;;;;;4361912;32;19982;-70
2021/11/30 09:29:04;;;;;;;17.17;5.75;;;;;;;;;;4351921;33;20054;-70
2021/11/30 09:31:29;;;;;;;17.60;4.93;;;;;;;;;;4356152;32;20339;-71
2021/11/30 09:33:55;;;;;;;;;;;;;;;;;;4362254;33;20062;-70
2021/11/30 09:36:20;;;;;;;21.37;5.18;;;;;;;;;;4362398;32;19982;-70
2021/11/30 09:38:52;;;;;;;;;;;;;;;;;;4362074;32;20055;-71
2021/11/30 09:41:21;;;;;;;21.50;4.95;;;;;;;;;;4362052;32;19934;-70
2021/11/30 09:43:46;;;;;;;19.42;4.85;;;;;;;;;;4361430;32;20535;-69
2021/11/30 09:46:11;;;;;;;;;;;;;;;;;;4360722;33;20036;-69
2021/11/30 09:48:39;;;;;;;13.82;4.90;;;;;;;;;;4362905;32;19934;-71
2021/11/30 09:51:05;;;;;;;15.18;4.25;;;;;;;;;;4348204;33;20097;-70
2021/11/30 09:53:30;;;;;;;;;;;;;;;;;;4362221;32;20092;-69
2021/11/30 09:55:56;;;;;;;26.17;5.32;;;;;;;;;;4348106;33;19943;-69
2021/11/30 09:58:21;;;;;;;;;;;;;;;;;;4360627;32;20178;-70
2021/11/30 10:00:50;;;;;;;24.08;6.00;;;;;;;;;;4360580;32;20213;-71
2021/11/30 10:03:21;;;;;;;18.83;5.25;;;;;;;;;;4361594;32;20031;-69
2021/11/30 10:05:47;;;;;;;19.05;5.47;;;;;;;;;;4361629;32;20053;-69
2021/11/30 10:08:12;;;;;;;;;;;;;;;;;;4361738;33;20086;-69
2021/11/30 10:10:38;;;;;;;22.23;5.30;;;;;;;;;;4360986;32;19943;-69
2021/11/30 10:13:13;;;;;;;16.87;4.80;;;;;;;;;;4360534;32;20144;-69
2021/11/30 10:15:50;;;;;;;13.48;4.68;;;;;;;;;;4362442;32;20072;-69
2021/11/30 10:18:28;;;;;;;14.77;4.85;;;;;;;;;;4361412;32;20102;-69
2021/11/30 10:21:26;;;;;;;25.55;5.62;;;;;;;;;;4359170;32;20054;-69
2021/11/30 10:23:56;;;;;;;14.10;4.47;;;;;;;;;;4349382;33;20089;-69
2021/11/30 10:26:25;;;;;;;18.12;4.93;;;;;;;;;;4360339;32;20035;-71
2021/11/30 10:28:52;;;;;;;16.40;4.82;;;;;;;;;;4355474;33;20477;-70
2021/11/30 10:31:17;;;;;;;15.88;5.10;;;;;;;;;;4342978;32;20397;-70
2021/11/30 10:33:43;;;;;;;;;;;;;;;;;;4354500;33;20388;-69
2021/11/30 10:36:09;;;;;;;16.73;4.55;;;;;;;;;;4355940;32;20004;-70
2021/11/30 10:38:39;;;;;;;18.92;5.43;;;;;;;;;;4358962;32;20148;-69
2021/11/30 10:41:10;;;;;;;22.10;4.80;;;;;;;;;;4360478;32;20402;-71
2021/11/30 10:43:41;;;;;;;18.02;4.40;;;;;;;;;;4361476;32;20463;-69
2021/11/30 10:46:08;;;;;;;15.85;4.43;;;;;;;;;;4362386;32;20174;-70
2021/11/30 10:48:34;;;;;;;17.45;4.03;;;;;;;;;;4361018;32;20036;-70
2021/11/30 10:50:59;;;;;;;;;;;;;;;;;;4361463;32;20424;-69
2021/11/30 10:53:26;;;;;;;14.90;4.65;;;;;;;;;;4359446;33;19961;-70
2021/11/30 10:55:53;;;;;;;13.35;4.75;;;;;;;;;;4357739;32;20524;-70
2021/11/30 10:58:20;;;;;;;15.15;5.37;;;;;;;;;;4357763;33;20051;-70
2021/11/30 11:00:45;;;;;;;15.23;4.90;;;;;;;;;;4344868;33;20403;-70
2021/11/30 11:03:13;;;;;;;;;;;;;;;;;;4359427;32;20081;-69
2021/11/30 11:05:40;;;;;;;13.48;4.57;;;;;;;;;;4356111;32;20253;-69
2021/11/30 11:08:16;;;;;;;16.33;6.10;;;;;;;;;;4358303;32;20061;-70
2021/11/30 11:10:58;;;;;;;14.38;7.40;;;;;;;;;;4343621;33;20028;-70
2021/11/30 11:13:28;;;;;;;22.37;7.53;;;;;;;;;;4354960;32;20034;-70
2021/11/30 11:16:09;;;;;;;20.80;7.25;;;;;;;;;;4359243;32;20027;-70
2021/11/30 11:18:35;;;;;;;17.45;6.93;;;;;;;;;;4360155;32;20396;-70
2021/11/30 11:21:01;;;;;;;;;;;;;;;;;;4360342;32;20077;-69
2021/11/30 11:23:29;;;;;;;22.45;6.32;;;;;;;;;;4359590;32;19947;-69
2021/11/30 11:25:59;;;;;;;14.48;6.32;;;;;;;;;;4345736;33;20475;-70
2021/11/30 11:28:24;;;;;;;15.23;6.03;;;;;;;;;;4360346;32;20073;-70
2021/11/30 11:30:49;;;;;;;;;;;;;;;;;;4359416;33;20203;-72
2021/11/30 11:33:15;;;;;;;12.73;5.40;;;;;;;;;;4357756;33;19997;-70
2021/11/30 11:35:40;;;;;;;;;;;;;;;;;;4352701;33;20082;-70
2021/11/30 11:38:08;;;;;;;16.58;6.00;;;;;;;;;;4359613;33;20276;-69
2021/11/30 11:40:34;;;;;;;15.90;6.93;;;;;;;;;;4359282;33;20077;-69
2021/11/30 11:42:59;;;;;;;;;;;;;;;;;;4360243;33;20020;-70
2021/11/30 11:45:24;;;;;;;19.62;6.15;;;;;;;;;;4357450;33;19974;-70
2021/11/30 11:47:49;;;;;;;;;;;;;;;;;;4358532;33;20079;-71
2021/11/30 11:50:18;;;;;;;24.60;8.43;;;;;;;;;;4349742;33;19950;-70
2021/11/30 11:52:43;;;;;;;18.77;7.05;;;;;;;;;;4359690;33;20178;-69
2021/11/30 11:55:10;;;;;;;;;;;;;;;;;;4358926;33;20083;-69
2021/11/30 11:57:38;;;;;;;24.00;7.55;;;;;;;;;;4359942;33;19978;-70
2021/11/30 12:03:09;;;;;;;21.10;6.32;;;;;;;;;;4352161;33;20041;-70
2021/11/30 12:05:59;;;;;;;15.82;7.25;;;;;;;;;;4359464;33;20039;-70
2021/11/30 12:08:36;;;;;;;23.05;8.05;;;;;;;;;;4360938;32;20061;-71
2021/11/30 12:11:03;;;;;;;25.42;9.88;;;;;;;;;;4362609;33;20059;-69
2021/11/30 12:13:29;;;;;;;21.48;7.30;;;;;;;;;;4362911;32;20027;-70
2021/11/30 12:15:54;;;;;;;;;;;;;;;;;;4363764;32;20023;-70
2021/11/30 12:18:42;;;;;;;;;;;;;;;;;;;;;
2021/11/30 12:21:14;;;;;;;20.10;7.37;;;;;;;;;;4359600;33;20426;-70
2021/11/30 12:23:49;;;;;;;29.30;8.60;;;;;;;;;;4362839;32;20035;-69
2021/11/30 12:32:52;;;;;;;19.17;7.50;;;;;;;;;;4271122;33;20051;-69
2021/11/30 12:35:20;;;;;;;20.65;7.43;;;;;;;;;;4258421;33;20428;-70
2021/11/30 12:38:03;;;;;;;17.77;7.00;;;;;;;;;;4258620;33;20444;-69
2021/11/30 12:41:06;;;;;;;21.70;9.13;;;;;;;;;;4258722;33;20231;-69
2021/11/30 12:47:12;;;;;;;30.45;9.48;;;;;;;;;;4229139;34;20061;-69
2021/11/30 12:50:21;;;;;;;18.83;8.65;;;;;;;;;;4235978;33;20041;-70
2021/11/30 12:53:12;;;;;;;25.48;8.10;;;;;;;;;;4257840;33;20093;-69
2021/11/30 12:59:06;;;;;;;17.92;7.87;;;;;;;;;;4255758;33;20075;-70
2021/11/30 13:01:41;;;;;;;;;;;;;;;;;;;;;
2021/11/30 13:04:36;;;;;;;;;;;;;;;;;;;;;
2021/11/30 13:10:27;;;;;;;;;;;;;;;;;;;;;
2021/11/30 13:13:13;;;;;;;15.40;5.72;;;;;;;;;;4362219;33;20432;-71
2021/11/30 13:16:02;;;;;;;15.25;5.30;;;;;;;;;;4361663;33;20073;-71
2021/11/30 13:18:32;;;;;;;24.55;7.62;;;;;;;;;;4362359;32;20054;-70
2021/11/30 13:21:11;;;;;;;22.73;6.40;;;;;;;;;;4361751;32;20061;-70
2021/11/30 13:23:36;;;;;;;15.68;5.28;;;;;;;;;;4362757;32;20019;-70
2021/11/30 13:26:02;;;;;;;;;;;;;;;;;;4360292;32;20381;-70
2021/11/30 13:28:33;;;;;;;17.45;4.47;;;;;;;;;;4359408;32;19938;-70
2021/11/30 13:31:01;;;;;;;10.32;3.58;;;;;;;;;;4359143;33;20463;-69
2021/11/30 13:33:30;;;;;;;9.13;3.83;;;;;;;;;;4354473;32;20032;-70
2021/11/30 13:36:30;;;;;;;14.60;4.05;;;;;;;;;;4355307;32;20069;-70
2021/11/30 13:38:58;;;;;;;9.10;3.58;;;;;;;;;;4354995;33;20081;-69
2021/11/30 13:41:24;;;;;;;9.05;4.15;;;;;;;;;;4357783;32;20082;-70
2021/11/30 13:43:56;;;;;;;;;;;;;;;;;;4362065;32;20024;-69
2021/11/30 13:47:02;;;;;;;;;;;;;;;;;;;;;
2021/11/30 13:49:41;;;;;;;16.20;6.82;;;;;;;;;;4359058;33;20035;-69
2021/11/30 13:52:17;;;;;;;14.30;6.75;;;;;;;;;;4361866;32;20062;-69
2021/11/30 13:54:48;;;;;;;8.30;6.15;;;;;;;;;;4361601;32;20110;-71
2021/11/30 13:57:17;;;;;;;22.42;8.38;;;;;;;;;;4359274;33;20027;-70
2021/11/30 14:02:47;;;;;;;18.30;9.45;;;;;;;;;;4338160;33;20053;-70
2021/11/30 14:05:12;;;;;;;;;;;;;;;;;;4361698;32;20436;-70
2021/11/30 14:07:48;;;;;;;19.80;9.02;;;;;;;;;;4354711;32;19938;-70
2021/11/30 14:10:16;;;;;;;;;;;;;;;;;;4359390;32;20101;-70
2021/11/30 14:12:49;;;;;;;20.35;11.18;;;;;;;;;;4358123;32;19943;-70
2021/11/30 14:15:15;;;;;;;24.45;9.13;;;;;;;;;;4361324;32;20043;-70
2021/11/30 14:17:40;;;;;;;;;;;;;;;;;;4360923;32;20135;-70
2021/11/30 14:20:26;;;;;;;19.45;9.00;;;;;;;;;;4361265;32;19934;-70
2021/11/30 14:22:52;;;;;;;28.33;12.15;;;;;;;;;;4360769;32;20023;-69
2021/11/30 14:25:23;;;;;;;;;;;;;;;;;;4361413;32;20039;-70
2021/11/30 14:27:50;;;;;;;25.15;9.50;;;;;;;;;;4361228;32;19942;-70
2021/11/30 14:30:19;;;;;;;19.42;9.48;;;;;;;;;;4360516;32;20031;-70
2021/11/30 14:32:46;;;;;;;19.37;8.35;;;;;;;;;;4360966;32;20023;-70
2021/11/30 14:35:13;;;;;;;17.12;6.78;;;;;;;;;;4361168;32;20035;-70
2021/11/30 14:37:48;;;;;;;21.90;8.43;;;;;;;;;;4360933;32;20132;-70
2021/11/30 14:40:21;;;;;;;23.38;8.07;;;;;;;;;;4360179;32;20040;-70
2021/11/30 14:43:02;;;;;;;21.70;7.97;;;;;;;;;;4360459;33;20024;-70
2021/11/30 14:45:28;;;;;;;23.87;9.23;;;;;;;;;;4346779;33;20766;-70
2021/11/30 14:50:42;;;;;;;24.17;8.80;;;;;;;;;;4359979;32;19945;-70
2021/11/30 14:53:09;;;;;;;20.90;8.23;;;;;;;;;;4361833;32;20020;-70
2021/11/30 14:55:35;;;;;;;18.65;7.57;;;;;;;;;;4347871;32;20020;-70
2021/11/30 14:58:00;;;;;;;;;;;;;;;;;;4346552;33;20062;-70
2021/11/30 15:00:29;;;;;;;20.45;6.57;;;;;;;;;;4357984;32;19973;-70
2021/11/30 15:03:54;;;;;;;18.23;5.78;;;;;;;;;;4360339;32;20120;-70
2021/11/30 15:06:43;;;;;;;13.48;5.05;;;;;;;;;;4297682;33;20029;-69
2021/11/30 15:09:19;;;;;;;16.37;4.82;;;;;;;;;;4295662;33;20032;-74
2021/11/30 15:12:14;;;;;;;22.73;13.90;;;;;;;;;;4336320;33;20031;-71
2021/11/30 15:14:50;;;;;;;14.82;6.30;;;;;;;;;;4359418;33;20073;-70
2021/11/30 15:17:44;;;;;;;18.70;6.05;;;;;;;;;;4361660;32;20027;-70
2021/11/30 15:20:17;;;;;;;21.52;7.00;;;;;;;;;;4359893;32;20035;-69
2021/11/30 15:25:31;;;;;;;11.25;5.18;;;;;;;;;;4354044;33;20461;-70
2021/11/30 15:27:56;;;;;;;;;;;;;;;;;;4361076;32;20023;-70
2021/11/30 15:30:21;;;;;;;22.48;6.22;;;;;;;;;;4346856;33;20331;-69
2021/11/30 15:32:47;;;;;;;;;;;;;;;;;;4360663;33;20028;-69
2021/11/30 15:35:12;;;;;;;18.33;6.57;;;;;;;;;;4358938;33;19953;-70
2021/11/30 15:37:38;;;;;;;;;;;;;;;;;;4360325;33;20184;-69
2021/11/30 15:40:03;;;;;;;15.27;8.43;;;;;;;;;;4359241;33;19943;-70
2021/11/30 15:42:28;;;;;;;;;;;;;;;;;;4360806;32;20019;-69
2021/11/30 15:44:57;;;;;;;24.67;7.97;;;;;;;;;;4362193;32;20288;-69
2021/11/30 15:47:22;;;;;;;29.37;8.10;;;;;;;;;;4362758;32;20425;-69
2021/11/30 15:49:48;;;;;;;;;;;;;;;;;;4363584;32;20046;-69
2021/11/30 15:52:14;;;;;;;19.45;7.30;;;;;;;;;;4362958;32;20268;-69
2021/11/30 15:54:42;;;;;;;26.45;7.78;;;;;;;;;;4362725;32;20135;-70
2021/11/30 16:00:11;;;;;;;16.05;6.32;;;;;;;;;;4362860;32;20046;-70
2021/11/30 16:02:43;;;;;;;24.50;8.18;;;;;;;;;;4362968;32;20023;-70
2021/11/30 16:05:32;;;;;;;18.02;6.65;;;;;;;;;;4362024;32;20078;-70
2021/11/30 16:07:57;;;;;;;17.73;6.95;;;;;;;;;;4362064;32;20075;-70
2021/11/30 16:10:23;;;;;;;;;;;;;;;;;;4362631;32;20031;-69
2021/11/30 16:12:48;;;;;;;14.82;6.75;;;;;;;;;;4362294;32;19934;-70
2021/11/30 16:15:13;;;;;;;;;;;;;;;;;;4362865;32;20065;-70
2021/11/30 16:17:39;;;;;;;18.35;7.75;;;;;;;;;;4352324;32;19963;-70
2021/11/30 16:23:18;;;;;;;;;;;;;;;;;;;;;
2021/11/30 16:25:44;;;;;;;22.90;7.97;;;;;;;;;;4301046;33;20017;-69
2021/11/30 16:28:09;;;;;;;;;;;;;;;;;;4334011;33;20050;-70
2021/11/30 16:30:34;;;;;;;21.42;7.47;;;;;;;;;;4347588;33;20317;-70
2021/11/30 16:32:59;;;;;;;;;;;;;;;;;;4348017;33;20032;-70